Terminal Aerodrome Forecast
Issued by NWS Shreveport, LA

Home | Current Version | Previous Version | Text Only | Print | Product List | Glossary On
Versions: 1 2 3 4 5 6 7 8 9 10 11 12 13 14 15
000
FTUS44 KSHV 060536
TAFTYR
TAF
KTYR 060536Z 0606/0706 16009KT P6SM BKN050
      TEMPO 0610/0614 5SM BR BKN015
     FM061400 20014G21KT P6SM BKN015
     FM061600 19015G20KT P6SM SCT050
     FM070000 17010KT P6SM SCT250=

USA.gov is the U.S. government's official web portal to all federal, state and local government web resources and services.